createdAt,value
2023-03-22T00:01:46.351Z,90.13
2023-03-22T00:04:12.955Z,90.07
2023-03-22T00:06:39.612Z,89.85
2023-03-22T00:09:06.187Z,89.96
2023-03-22T00:11:32.665Z,89.14
2023-03-22T00:13:59.728Z,89.27
2023-03-22T00:16:26.336Z,89.34
2023-03-22T00:18:52.848Z,89.15
2023-03-22T00:21:19.295Z,89.39
2023-03-22T00:23:45.996Z,88.36
2023-03-22T00:26:13.061Z,88.16
2023-03-22T00:28:39.488Z,88.18
2023-03-22T00:31:06.546Z,88.12
2023-03-22T00:33:33.704Z,87.61
2023-03-22T00:36:01.939Z,87.31
2023-03-22T00:38:43.762Z,87.38
2023-03-22T00:41:11.034Z,87.28
2023-03-22T00:43:38.022Z,86.68
2023-03-22T00:46:05.091Z,86.88
2023-03-22T00:48:31.753Z,86.72
2023-03-22T00:50:58.500Z,86.75
2023-03-22T00:53:25.059Z,86.30
2023-03-22T00:55:51.676Z,86.66
2023-03-22T00:58:18.139Z,87.33
2023-03-22T01:00:45.444Z,87.14
2023-03-22T01:03:14.298Z,87.25
2023-03-22T01:05:40.753Z,87.42
2023-03-22T01:08:10.169Z,87.67
2023-03-22T01:10:37.755Z,87.93
2023-03-22T01:13:04.533Z,88.21
2023-03-22T01:15:31.003Z,88.66
2023-03-22T01:17:57.725Z,88.46
2023-03-22T01:20:24.279Z,88.66
2023-03-22T01:22:51.365Z,88.90
2023-03-22T01:25:17.995Z,89.07
2023-03-22T01:27:44.835Z,89.20
2023-03-22T01:30:11.925Z,89.25
2023-03-22T01:32:38.565Z,89.27
2023-03-22T01:35:06.308Z,89.46
2023-03-22T01:37:32.893Z,89.80
2023-03-22T01:39:59.637Z,89.96
2023-03-22T01:42:26.672Z,90.06
2023-03-22T01:45:11.796Z,89.99
2023-03-22T01:47:38.251Z,90.08
2023-03-22T01:50:05.327Z,90.39
2023-03-22T01:52:31.905Z,90.77
2023-03-22T01:54:58.481Z,91.06
2023-03-22T01:57:25.521Z,90.81
2023-03-22T01:59:52.144Z,90.88
2023-03-22T02:02:19.258Z,90.49
2023-03-22T02:04:50.623Z,90.51
2023-03-22T02:07:26.074Z,90.79
2023-03-22T02:09:53.008Z,91.14
2023-03-22T02:12:25.449Z,91.48
2023-03-22T02:14:55.015Z,91.85
2023-03-22T02:17:28.162Z,91.69
2023-03-22T02:20:11.185Z,91.44
2023-03-22T02:22:50.126Z,91.25
2023-03-22T02:25:31.825Z,91.44
2023-03-22T02:28:10.493Z,91.05
2023-03-22T02:30:40.093Z,91.54
2023-03-22T02:33:14.590Z,91.81
2023-03-22T02:35:41.045Z,92.00
2023-03-22T02:38:25.941Z,91.89
2023-03-22T02:41:10.742Z,92.39
2023-03-22T02:43:41.645Z,92.09
2023-03-22T02:46:30.787Z,92.36
2023-03-22T02:49:04.557Z,92.60
2023-03-22T02:51:57.103Z,93.17
2023-03-22T02:54:29.954Z,93.08
2023-03-22T02:57:03.136Z,93.23
2023-03-22T02:59:31.683Z,93.26
2023-03-22T03:02:00.366Z,93.53
2023-03-22T03:04:29.216Z,93.35
2023-03-22T03:06:58.995Z,93.31
2023-03-22T03:09:26.022Z,94.17
2023-03-22T03:11:53.216Z,95.77
2023-03-22T03:14:24.057Z,96.78
2023-03-22T03:16:56.029Z,96.92
2023-03-22T03:19:29.656Z,96.42
2023-03-22T03:21:56.070Z,96.50
2023-03-22T03:24:27.559Z,96.11
2023-03-22T03:26:59.989Z,95.58
2023-03-22T03:29:26.459Z,95.05
2023-03-22T03:31:57.782Z,94.77
2023-03-22T03:34:34.945Z,94.59
2023-03-22T03:37:14.537Z,95.13
2023-03-22T03:39:52.940Z,95.73
2023-03-22T03:42:21.089Z,95.91
2023-03-22T03:44:48.186Z,95.84
2023-03-22T03:47:14.727Z,95.66
2023-03-22T03:49:42.084Z,95.67
2023-03-22T03:52:08.552Z,95.68
2023-03-22T03:54:35.045Z,95.53
2023-03-22T03:57:03.993Z,95.25
2023-03-22T03:59:30.698Z,95.02
2023-03-22T04:01:57.222Z,94.96
2023-03-22T04:04:27.940Z,95.18
2023-03-22T04:06:58.476Z,95.10
2023-03-22T04:09:30.009Z,94.75
2023-03-22T04:11:57.109Z,94.72
2023-03-22T04:14:24.294Z,94.45
2023-03-22T04:16:50.854Z,94.57
2023-03-22T04:19:17.586Z,94.75
2023-03-22T04:21:44.290Z,94.51
2023-03-22T04:24:10.881Z,94.79
2023-03-22T04:26:37.509Z,95.04
2023-03-22T04:29:04.303Z,94.33
2023-03-22T04:31:31.799Z,94.45
2023-03-22T04:34:05.607Z,94.41
2023-03-22T04:36:36.373Z,94.65
2023-03-22T04:39:06.990Z,94.64
2023-03-22T04:41:34.321Z,94.40
2023-03-22T04:44:03.327Z,94.39
2023-03-22T04:46:30.808Z,94.51
2023-03-22T04:48:57.339Z,94.61
2023-03-22T04:51:24.082Z,94.34
2023-03-22T04:53:50.526Z,94.09
2023-03-22T04:56:17.000Z,94.27
2023-03-22T04:58:44.306Z,94.34
2023-03-22T05:01:11.727Z,94.22
2023-03-22T05:03:38.455Z,94.38
2023-03-22T05:06:06.633Z,94.49
2023-03-22T05:08:33.560Z,93.96
2023-03-22T05:11:05.357Z,94.15
2023-03-22T05:13:31.934Z,93.92
2023-03-22T05:15:59.507Z,93.87
2023-03-22T05:18:26.392Z,93.86
2023-03-22T05:20:54.692Z,94.04
2023-03-22T05:23:22.282Z,94.00
2023-03-22T05:25:49.598Z,94.58
2023-03-22T05:28:19.545Z,94.25
2023-03-22T05:30:46.057Z,93.99
2023-03-22T05:33:12.697Z,94.22
2023-03-22T05:35:40.148Z,94.13
2023-03-22T05:38:06.996Z,94.47
2023-03-22T05:40:33.948Z,94.69
2023-03-22T05:43:00.398Z,95.01
2023-03-22T05:45:27.093Z,94.89
2023-03-22T05:47:53.611Z,95.87
2023-03-22T05:50:21.947Z,96.21
2023-03-22T05:52:48.606Z,96.66
2023-03-22T05:55:17.586Z,97.45
2023-03-22T05:57:44.765Z,97.85
2023-03-22T06:00:13.526Z,98.60
2023-03-22T06:02:40.663Z,98.44
2023-03-22T06:05:07.628Z,99.06
2023-03-22T06:07:34.573Z,99.01
2023-03-22T06:10:01.154Z,98.91
2023-03-22T06:12:30.024Z,100.00
2023-03-22T06:14:56.782Z,100.00
2023-03-22T06:17:24.087Z,100.00
2023-03-22T06:19:52.948Z,100.00
2023-03-22T06:22:20.032Z,100.00
2023-03-22T06:24:46.553Z,100.00
2023-03-22T06:27:13.429Z,100.00
2023-03-22T06:29:40.244Z,100.00
2023-03-22T06:32:06.942Z,100.00
2023-03-22T06:34:33.392Z,100.00
2023-03-22T06:36:59.931Z,100.00
2023-03-22T06:39:26.425Z,100.00
2023-03-22T06:41:52.878Z,100.00
2023-03-22T06:44:19.406Z,100.00
2023-03-22T06:46:45.986Z,100.00
2023-03-22T06:49:12.520Z,100.00
2023-03-22T06:51:39.027Z,100.00
2023-03-22T06:54:05.628Z,100.00
2023-03-22T06:56:32.084Z,100.00
2023-03-22T06:58:58.590Z,100.00
2023-03-22T07:01:25.435Z,100.00
2023-03-22T07:03:51.964Z,100.00
2023-03-22T07:06:18.410Z,100.00
2023-03-22T07:08:44.847Z,100.00
2023-03-22T07:11:11.317Z,100.00
2023-03-22T07:13:37.836Z,100.00
2023-03-22T07:16:04.444Z,100.00
2023-03-22T07:18:30.926Z,100.00
2023-03-22T07:20:57.490Z,100.00
2023-03-22T07:23:24.164Z,100.00
2023-03-22T07:25:51.669Z,100.00
2023-03-22T07:28:18.120Z,100.00
2023-03-22T07:30:44.551Z,100.00
2023-03-22T07:33:11.253Z,100.00
2023-03-22T07:35:38.588Z,100.00
2023-03-22T07:38:05.128Z,100.00
2023-03-22T07:40:31.887Z,100.00
2023-03-22T07:43:01.442Z,100.00
2023-03-22T07:45:28.328Z,100.00
2023-03-22T07:47:54.929Z,100.00
2023-03-22T07:50:21.423Z,100.00
2023-03-22T07:52:48.035Z,100.00
2023-03-22T07:55:14.849Z,100.00
2023-03-22T07:57:41.418Z,100.00
2023-03-22T08:00:12.073Z,100.00
2023-03-22T08:02:38.969Z,100.00
2023-03-22T08:05:06.000Z,100.00
2023-03-22T08:07:32.483Z,100.00
2023-03-22T08:09:59.403Z,100.00
2023-03-22T08:12:28.169Z,100.00
2023-03-22T08:14:55.101Z,100.00
2023-03-22T08:17:21.573Z,100.00
2023-03-22T08:19:48.007Z,100.00
2023-03-22T08:22:15.446Z,100.00
2023-03-22T08:24:42.265Z,100.00
2023-03-22T08:27:08.726Z,100.00
2023-03-22T08:29:35.370Z,100.00
2023-03-22T08:32:03.692Z,100.00
2023-03-22T08:34:31.362Z,100.00
2023-03-22T08:36:57.920Z,100.00
2023-03-22T08:39:24.723Z,100.00
2023-03-22T08:41:51.426Z,100.00
2023-03-22T08:44:17.850Z,100.00
2023-03-22T08:46:44.302Z,100.00
2023-03-22T08:49:10.828Z,100.00
2023-03-22T08:51:37.295Z,99.00
2023-03-22T08:54:04.548Z,99.08
2023-03-22T08:56:32.427Z,98.86
2023-03-22T08:58:58.965Z,98.04
2023-03-22T09:01:26.667Z,97.91
2023-03-22T09:03:53.290Z,97.99
2023-03-22T09:06:19.741Z,97.15
2023-03-22T09:08:47.037Z,96.90
2023-03-22T09:11:13.834Z,96.33
2023-03-22T09:13:40.808Z,96.20
2023-03-22T09:16:09.139Z,95.61
2023-03-22T09:18:36.216Z,93.53
2023-03-22T09:21:02.850Z,92.31
2023-03-22T09:23:30.455Z,89.53
2023-03-22T09:25:59.535Z,90.75
2023-03-22T09:28:26.499Z,90.00
2023-03-22T09:30:53.450Z,89.13
2023-03-22T09:33:19.934Z,89.64
2023-03-22T09:35:46.457Z,88.37
2023-03-22T09:38:13.752Z,84.84
2023-03-22T09:40:46.793Z,83.75
2023-03-22T09:43:15.569Z,84.07
2023-03-22T09:45:43.814Z,81.74
2023-03-22T09:48:13.328Z,80.85
2023-03-22T09:50:47.694Z,80.84
2023-03-22T09:53:14.845Z,80.55
2023-03-22T09:55:45.599Z,78.93
2023-03-22T09:58:19.873Z,77.85
2023-03-22T10:00:55.836Z,78.10
2023-03-22T10:03:48.422Z,75.94
2023-03-22T10:06:14.876Z,76.22
2023-03-22T10:08:56.348Z,75.09
2023-03-22T10:11:42.795Z,76.56
2023-03-22T10:14:30.670Z,74.76
2023-03-22T10:16:59.153Z,75.34
2023-03-22T10:19:35.283Z,73.60
2023-03-22T10:22:03.986Z,75.62
2023-03-22T10:24:32.882Z,75.78
2023-03-22T10:26:59.369Z,73.12
2023-03-22T10:29:39.095Z,72.03
2023-03-22T10:32:14.428Z,70.21
2023-03-22T10:34:41.093Z,70.21
2023-03-22T10:37:11.718Z,70.67
2023-03-22T10:39:40.826Z,70.91
2023-03-22T10:42:13.495Z,70.10
2023-03-22T10:44:48.085Z,69.82
2023-03-22T10:47:18.179Z,68.15
2023-03-22T10:49:48.370Z,69.11
2023-03-22T10:52:27.095Z,66.63
2023-03-22T10:54:54.146Z,66.62
2023-03-22T10:57:20.788Z,65.37
2023-03-22T10:59:51.911Z,66.86
2023-03-22T11:02:20.930Z,66.59
2023-03-22T11:04:51.934Z,67.22
2023-03-22T11:07:34.968Z,66.50
2023-03-22T11:10:10.755Z,66.27
2023-03-22T11:12:51.019Z,65.87
2023-03-22T11:15:28.793Z,64.73
2023-03-22T11:18:00.161Z,64.48
2023-03-22T11:20:28.664Z,65.77
2023-03-22T11:22:59.946Z,66.22
2023-03-22T11:25:28.088Z,66.49
2023-03-22T11:28:09.487Z,65.14
2023-03-22T11:30:37.199Z,65.12
2023-03-22T11:33:17.063Z,65.76
2023-03-22T11:35:44.911Z,65.18
2023-03-22T11:38:22.765Z,65.08
2023-03-22T11:40:52.177Z,64.52
2023-03-22T11:43:27.071Z,65.04
2023-03-22T11:45:56.305Z,64.38
2023-03-22T11:48:24.271Z,64.85
2023-03-22T11:50:53.400Z,65.37
2023-03-22T11:53:22.744Z,64.99
2023-03-22T11:55:51.372Z,64.75
2023-03-22T11:58:28.133Z,64.66
2023-03-22T12:00:57.246Z,65.57
2023-03-22T12:03:26.437Z,65.72
2023-03-22T12:05:53.276Z,66.52
2023-03-22T12:08:38.087Z,66.71
2023-03-22T12:11:08.528Z,66.56
2023-03-22T12:13:40.913Z,65.45
2023-03-22T12:16:08.025Z,66.62
2023-03-22T12:18:38.646Z,65.21
2023-03-22T12:21:05.308Z,65.38
2023-03-22T12:23:34.970Z,66.62
2023-03-22T12:26:06.912Z,66.83
2023-03-22T12:28:52.643Z,66.50
2023-03-22T12:31:22.658Z,66.85
2023-03-22T12:33:51.555Z,66.73
2023-03-22T12:36:20.681Z,66.28
2023-03-22T12:38:50.276Z,66.80
2023-03-22T12:41:19.152Z,66.67
2023-03-22T12:43:53.427Z,65.74
2023-03-22T12:46:22.111Z,65.56
2023-03-22T12:48:51.135Z,65.71
2023-03-22T12:51:17.771Z,66.31
2023-03-22T12:53:53.185Z,66.21
2023-03-22T12:56:21.729Z,66.08
2023-03-22T12:58:53.704Z,66.40
2023-03-22T13:01:39.545Z,66.30
2023-03-22T13:04:24.588Z,64.75
2023-03-22T13:06:50.999Z,63.88
2023-03-22T13:09:34.971Z,64.00
2023-03-22T13:12:16.792Z,63.47
2023-03-22T13:14:52.245Z,63.61
2023-03-22T13:17:25.433Z,64.09
2023-03-22T13:20:01.369Z,62.69
2023-03-22T13:22:29.058Z,62.76
2023-03-22T13:25:00.271Z,62.83
2023-03-22T13:27:46.958Z,62.93
2023-03-22T13:30:22.611Z,63.00
2023-03-22T13:32:52.516Z,62.29
2023-03-22T13:35:28.463Z,62.96
2023-03-22T13:38:01.670Z,61.41
2023-03-22T13:40:28.157Z,62.50
2023-03-22T13:42:54.697Z,62.10
2023-03-22T13:45:33.990Z,62.94
2023-03-22T13:48:11.923Z,62.10
2023-03-22T13:50:39.721Z,62.11
2023-03-22T13:53:14.692Z,62.37
2023-03-22T13:55:58.579Z,62.69
2023-03-22T13:58:25.010Z,61.45
2023-03-22T14:00:54.672Z,61.83
2023-03-22T14:03:27.623Z,60.80
2023-03-22T14:06:23.530Z,61.41
2023-03-22T14:08:52.542Z,61.18
2023-03-22T14:11:43.898Z,61.79
2023-03-22T14:14:19.492Z,61.97
2023-03-22T14:16:48.817Z,62.91
2023-03-22T14:19:23.598Z,63.07
